Mayflower, Arkansas
Current Conditions -  °F | °C
As of 5:58 AM on Sunday 25 Jan 2015 (Local Time) from KLRF Reporting Station
Clear Clear  
Wind Chill: 39°   Ceiling: Unl
Heat Index: 43°   Visibility: 10mi
Dew Point: 35°   Wind: 6mph
Humidity: 75%   Direction: 190°S
Pressure: 29.76"   Gusts: NA
Location:  34.96°N, 92.43°W
Report Text: KLRF 251158Z AUTO 19005KT 10SM CLR 06/02 A2976 RMK AO2 SLP081 T00600018 10060 21007 57028
Loading
Personal Weather Stations






























Interactive Weather Map New forecast layout! Learn more

10-Day Weather Forecast

Advertisements
Track Severe Weather on mobile